Time;durP1;ratioP1;P1;durP2;ratioP2;P2;SDS_P1;SDS_P2;PMS_P1;PMS_P2;Temp;Humidity;BMP_temperature;BMP_pressure;BME280_temperature;BME280_humidity;BME280_pressure;Samples;Min_cycle;Max_cycle;Signal;HPM_P1;HPM_P2
2021/09/20 00:00:46;;;;;;;4.37;4.07;;;;;;;;;;5069390;28;20517;-58
2021/09/20 00:03:12;;;;;;;3.83;3.53;;;;;;;;;;5088687;28;20213;-58
2021/09/20 00:05:39;;;;;;;5.27;4.07;;;;;;;;;;5085858;28;20175;-58
2021/09/20 00:08:05;;;;;;;4.50;4.10;;;;;;;;;;5085668;28;20183;-58
2021/09/20 00:10:31;;;;;;;4.30;4.00;;;;;;;;;;5087260;28;20658;-58
2021/09/20 00:12:57;;;;;;;4.73;4.20;;;;;;;;;;5087555;28;20228;-58
2021/09/20 00:15:23;;;;;;;4.63;4.23;;;;;;;;;;5088215;28;20239;-58
2021/09/20 00:17:50;;;;;;;5.20;4.07;;;;;;;;;;5085262;28;20186;-58
2021/09/20 00:20:16;;;;;;;4.30;4.00;;;;;;;;;;5087461;28;20208;-57
2021/09/20 00:22:42;;;;;;;4.30;3.67;;;;;;;;;;5088010;28;20215;-58
2021/09/20 00:25:09;;;;;;;4.47;4.07;;;;;;;;;;5088881;28;20188;-57
2021/09/20 00:27:35;;;;;;;4.00;3.70;;;;;;;;;;5087686;28;20187;-58
2021/09/20 00:30:02;;;;;;;5.43;4.23;;;;;;;;;;5069777;28;20804;-57
2021/09/20 00:32:28;;;;;;;4.40;4.10;;;;;;;;;;5085862;28;20503;-57
2021/09/20 00:34:54;;;;;;;4.73;4.33;;;;;;;;;;5088964;28;20180;-57
2021/09/20 00:37:20;;;;;;;4.93;3.87;;;;;;;;;;5088486;28;20184;-58
2021/09/20 00:39:46;;;;;;;4.33;3.93;;;;;;;;;;5088109;28;20241;-57
2021/09/20 00:42:12;;;;;;;3.90;3.60;;;;;;;;;;5088253;28;20187;-58
2021/09/20 00:44:38;;;;;;;3.97;3.67;;;;;;;;;;5088234;28;20178;-58
2021/09/20 00:47:04;;;;;;;4.27;3.87;;;;;;;;;;5088929;28;20228;-58
2021/09/20 00:49:30;;;;;;;4.43;4.10;;;;;;;;;;5089610;28;20252;-58
2021/09/20 00:51:56;;;;;;;4.00;3.70;;;;;;;;;;5073621;28;20223;-58
2021/09/20 00:54:22;;;;;;;4.13;3.83;;;;;;;;;;5066767;28;20693;-58
2021/09/20 00:56:48;;;;;;;3.97;3.67;;;;;;;;;;5094771;28;20751;-58
2021/09/20 00:59:16;;;;;;;4.20;3.90;;;;;;;;;;5093654;28;20231;-58
2021/09/20 01:01:42;;;;;;;4.30;4.00;;;;;;;;;;5091254;28;20168;-58
2021/09/20 01:04:08;;;;;;;4.70;3.87;;;;;;;;;;5092381;28;20529;-58
2021/09/20 01:06:34;;;;;;;4.50;4.10;;;;;;;;;;5092377;28;20181;-58
2021/09/20 01:09:00;;;;;;;4.77;4.37;;;;;;;;;;5091387;28;20187;-58
2021/09/20 01:11:26;;;;;;;4.00;3.70;;;;;;;;;;5103754;28;20216;-58
2021/09/20 01:13:52;;;;;;;4.50;4.10;;;;;;;;;;5092143;28;20553;-58
2021/09/20 01:16:18;;;;;;;5.03;3.80;;;;;;;;;;5091487;28;20180;-57
2021/09/20 01:18:44;;;;;;;4.53;4.13;;;;;;;;;;5099294;28;20245;-58
2021/09/20 01:21:13;;;;;;;4.27;3.97;;;;;;;;;;5103392;28;20204;-58
2021/09/20 01:23:40;;;;;;;4.43;4.03;;;;;;;;;;5093315;28;20180;-58
2021/09/20 01:26:06;;;;;;;4.60;4.07;;;;;;;;;;5091449;28;20237;-58
2021/09/20 01:28:32;;;;;;;4.23;3.87;;;;;;;;;;5091765;28;20182;-58
2021/09/20 01:30:59;;;;;;;4.40;4.00;;;;;;;;;;5091425;28;20203;-58
2021/09/20 01:33:25;;;;;;;5.27;4.77;;;;;;;;;;5090104;28;20210;-58
2021/09/20 01:35:51;;;;;;;4.80;4.33;;;;;;;;;;5072522;28;20191;-58
2021/09/20 01:38:17;;;;;;;4.60;4.20;;;;;;;;;;5091901;28;20184;-58
2021/09/20 01:40:43;;;;;;;4.40;4.00;;;;;;;;;;5090671;28;20229;-58
2021/09/20 01:43:09;;;;;;;5.27;4.53;;;;;;;;;;5073061;28;20721;-58
2021/09/20 01:45:35;;;;;;;4.80;4.40;;;;;;;;;;5073449;28;20266;-58
2021/09/20 01:48:01;;;;;;;4.93;3.90;;;;;;;;;;5060813;28;20180;-57
2021/09/20 01:50:28;;;;;;;4.73;4.30;;;;;;;;;;5085610;28;20305;-57
2021/09/20 01:52:54;;;;;;;4.30;4.00;;;;;;;;;;5082672;28;20188;-58
2021/09/20 01:55:20;;;;;;;4.23;3.83;;;;;;;;;;5091176;28;20184;-58
2021/09/20 01:57:46;;;;;;;4.40;4.00;;;;;;;;;;5090767;28;20228;-58
2021/09/20 02:00:13;;;;;;;4.90;4.50;;;;;;;;;;5069998;28;20555;-58
2021/09/20 02:02:40;;;;;;;4.17;3.83;;;;;;;;;;5091150;28;20171;-57
2021/09/20 02:05:07;;;;;;;4.70;4.17;;;;;;;;;;5091332;28;20186;-58
2021/09/20 02:07:34;;;;;;;4.53;4.13;;;;;;;;;;5091174;28;20168;-58
2021/09/20 02:10:00;;;;;;;4.67;4.27;;;;;;;;;;5089212;28;20350;-58
2021/09/20 02:12:26;;;;;;;5.83;4.40;;;;;;;;;;5089090;28;20224;-58
2021/09/20 02:14:52;;;;;;;5.17;4.67;;;;;;;;;;5091225;28;20557;-58
2021/09/20 02:17:18;;;;;;;4.30;4.00;;;;;;;;;;5091096;28;20180;-58
2021/09/20 02:19:44;;;;;;;4.73;4.33;;;;;;;;;;5090572;28;20196;-58
2021/09/20 02:22:10;;;;;;;5.33;4.83;;;;;;;;;;5090778;28;20175;-58
2021/09/20 02:24:36;;;;;;;4.70;4.30;;;;;;;;;;5089863;28;20208;-58
2021/09/20 02:27:02;;;;;;;4.90;4.43;;;;;;;;;;5089267;28;20237;-58
2021/09/20 02:29:29;;;;;;;5.40;4.90;;;;;;;;;;5090079;28;20701;-58
2021/09/20 02:31:55;;;;;;;4.93;4.43;;;;;;;;;;5090378;28;20211;-57
2021/09/20 02:34:21;;;;;;;4.87;4.47;;;;;;;;;;5090033;28;20186;-58
2021/09/20 02:36:47;;;;;;;4.63;4.23;;;;;;;;;;5090494;28;20178;-57
2021/09/20 02:39:13;;;;;;;5.20;4.70;;;;;;;;;;5071465;28;20175;-58
2021/09/20 02:41:39;;;;;;;5.13;4.63;;;;;;;;;;5090238;28;20210;-58
2021/09/20 02:44:05;;;;;;;5.50;5.00;;;;;;;;;;5090638;28;20225;-60
2021/09/20 02:46:31;;;;;;;5.03;4.63;;;;;;;;;;5088335;28;20281;-57
2021/09/20 02:48:57;;;;;;;5.13;4.73;;;;;;;;;;5070859;28;20596;-58
2021/09/20 02:51:24;;;;;;;5.83;4.93;;;;;;;;;;5089170;28;20208;-58
2021/09/20 02:53:50;;;;;;;4.67;4.27;;;;;;;;;;5069899;28;20283;-57
2021/09/20 02:56:16;;;;;;;4.97;4.47;;;;;;;;;;5069280;28;20286;-57
2021/09/20 02:58:42;;;;;;;4.27;3.97;;;;;;;;;;5090804;28;20646;-57
2021/09/20 03:01:08;;;;;;;7.57;7.00;;;;;;;;;;5089697;28;20673;-58
2021/09/20 03:03:34;;;;;;;5.90;5.40;;;;;;;;;;5072261;28;20193;-57
2021/09/20 03:06:00;;;;;;;4.90;4.50;;;;;;;;;;5089512;28;20203;-58
2021/09/20 03:08:26;;;;;;;5.27;4.67;;;;;;;;;;5089711;28;20176;-58
2021/09/20 03:10:52;;;;;;;5.13;4.63;;;;;;;;;;5081989;28;20256;-57
2021/09/20 03:13:18;;;;;;;5.10;4.70;;;;;;;;;;5094704;28;20187;-58
2021/09/20 03:15:47;;;;;;;5.10;4.60;;;;;;;;;;5091163;28;20183;-58
2021/09/20 03:18:14;;;;;;;8.40;7.70;;;;;;;;;;5072167;28;20194;-57
2021/09/20 03:20:40;;;;;;;5.33;4.87;;;;;;;;;;5070833;28;20207;-58
2021/09/20 03:23:06;;;;;;;5.60;5.00;;;;;;;;;;5089567;28;20620;-57
2021/09/20 03:25:33;;;;;;;5.43;4.93;;;;;;;;;;5082124;28;20259;-57
2021/09/20 03:27:59;;;;;;;6.23;4.80;;;;;;;;;;5101792;28;20538;-57
2021/09/20 03:30:25;;;;;;;5.77;5.23;;;;;;;;;;5087773;28;20210;-57
2021/09/20 03:32:51;;;;;;;5.10;4.60;;;;;;;;;;5089237;28;20218;-58
2021/09/20 03:35:17;;;;;;;6.83;5.50;;;;;;;;;;5087862;28;20654;-58
2021/09/20 03:37:44;;;;;;;5.20;4.80;;;;;;;;;;5087862;28;20183;-57
2021/09/20 03:40:11;;;;;;;8.23;7.63;;;;;;;;;;5087669;28;20210;-57
2021/09/20 03:42:37;;;;;;;5.23;4.77;;;;;;;;;;5087430;28;20262;-57
2021/09/20 03:45:04;;;;;;;4.80;4.40;;;;;;;;;;5088005;28;20210;-58
2021/09/20 03:47:30;;;;;;;5.87;5.20;;;;;;;;;;5071392;28;20255;-57
2021/09/20 03:49:56;;;;;;;5.80;5.30;;;;;;;;;;5086842;28;20187;-57
2021/09/20 03:52:22;;;;;;;5.80;5.20;;;;;;;;;;5103201;28;20253;-57
2021/09/20 03:54:48;;;;;;;5.63;5.13;;;;;;;;;;5086008;28;20546;-57
2021/09/20 03:57:14;;;;;;;5.00;4.60;;;;;;;;;;5081677;28;20190;-57
2021/09/20 03:59:41;;;;;;;5.47;5.00;;;;;;;;;;5087776;28;20207;-57
2021/09/20 04:02:07;;;;;;;5.87;5.27;;;;;;;;;;5087966;28;20618;-58
2021/09/20 04:04:33;;;;;;;5.27;4.80;;;;;;;;;;5070156;28;20190;-58
2021/09/20 04:07:03;;;;;;;6.00;5.43;;;;;;;;;;5088654;28;20179;-57
2021/09/20 04:09:29;;;;;;;5.20;4.70;;;;;;;;;;5086903;28;20616;-58
2021/09/20 04:11:55;;;;;;;5.63;5.03;;;;;;;;;;5081916;28;20236;-58
2021/09/20 04:14:21;;;;;;;5.33;4.93;;;;;;;;;;5086355;28;20216;-58
2021/09/20 04:16:47;;;;;;;5.33;4.83;;;;;;;;;;5088536;28;20180;-57
2021/09/20 04:19:13;;;;;;;5.83;5.27;;;;;;;;;;5090295;28;20179;-57
2021/09/20 04:21:40;;;;;;;4.73;4.33;;;;;;;;;;5100816;28;20187;-58
2021/09/20 04:24:06;;;;;;;5.37;4.97;;;;;;;;;;5086750;28;20255;-58
2021/09/20 04:26:32;;;;;;;5.20;4.80;;;;;;;;;;5091676;28;20255;-57
2021/09/20 04:28:58;;;;;;;5.83;5.27;;;;;;;;;;5092749;28;20171;-57
2021/09/20 04:31:24;;;;;;;4.90;4.47;;;;;;;;;;5091887;28;20245;-57
2021/09/20 04:33:51;;;;;;;5.10;4.70;;;;;;;;;;5091930;28;20235;-59
2021/09/20 04:36:21;;;;;;;5.70;5.10;;;;;;;;;;5068252;28;20558;-58
2021/09/20 04:38:47;;;;;;;5.33;4.93;;;;;;;;;;5073871;28;20233;-57
2021/09/20 04:41:13;;;;;;;4.80;4.33;;;;;;;;;;5091297;28;20214;-57
2021/09/20 04:43:43;;;;;;;5.20;4.70;;;;;;;;;;5075390;28;20622;-57
2021/09/20 04:46:09;;;;;;;6.73;6.23;;;;;;;;;;5094665;28;20251;-58
2021/09/20 04:48:35;;;;;;;5.40;4.93;;;;;;;;;;5090773;28;20251;-57
2021/09/20 04:51:02;;;;;;;5.87;5.27;;;;;;;;;;5091548;28;20179;-57
2021/09/20 04:53:28;;;;;;;5.13;4.63;;;;;;;;;;5083618;28;20262;-57
2021/09/20 04:55:55;;;;;;;5.43;4.93;;;;;;;;;;5085744;28;20654;-58
2021/09/20 04:58:21;;;;;;;5.30;4.90;;;;;;;;;;5090200;28;20176;-57
2021/09/20 05:00:47;;;;;;;5.90;5.40;;;;;;;;;;5090477;28;20191;-57
2021/09/20 05:03:13;;;;;;;5.57;5.07;;;;;;;;;;5107631;28;20190;-57
2021/09/20 05:05:39;;;;;;;5.13;4.73;;;;;;;;;;5098944;28;20240;-57
2021/09/20 05:08:05;;;;;;;6.27;5.67;;;;;;;;;;5097502;28;20175;-58
2021/09/20 05:10:31;;;;;;;5.30;4.80;;;;;;;;;;5095714;28;20592;-57
2021/09/20 05:12:58;;;;;;;4.93;4.53;;;;;;;;;;5072220;28;20695;-58
2021/09/20 05:15:24;;;;;;;5.77;5.27;;;;;;;;;;5088138;28;20270;-58
2021/09/20 05:17:50;;;;;;;5.00;4.60;;;;;;;;;;5090204;28;20722;-58
2021/09/20 05:20:20;;;;;;;6.20;5.60;;;;;;;;;;5087797;28;20267;-58
2021/09/20 05:22:47;;;;;;;5.87;5.37;;;;;;;;;;5070445;28;20627;-58
2021/09/20 05:25:13;;;;;;;6.67;5.00;;;;;;;;;;5085690;28;20175;-58
2021/09/20 05:27:39;;;;;;;5.63;5.07;;;;;;;;;;5090027;28;20219;-57
2021/09/20 05:30:09;;;;;;;5.73;5.20;;;;;;;;;;5089897;28;20180;-57
2021/09/20 05:32:35;;;;;;;6.07;5.57;;;;;;;;;;5094680;28;20209;-57
2021/09/20 05:35:01;;;;;;;6.03;5.47;;;;;;;;;;5087019;28;20188;-57
2021/09/20 05:37:27;;;;;;;5.63;5.13;;;;;;;;;;5084592;28;20533;-57
2021/09/20 05:39:53;;;;;;;5.33;4.87;;;;;;;;;;5089546;28;20725;-58
2021/09/20 05:42:19;;;;;;;5.20;4.70;;;;;;;;;;5091575;28;20191;-57
2021/09/20 05:44:46;;;;;;;6.17;5.37;;;;;;;;;;5091503;28;20175;-57
2021/09/20 05:47:12;;;;;;;6.23;5.63;;;;;;;;;;5056494;28;20221;-58
2021/09/20 05:49:38;;;;;;;5.77;5.27;;;;;;;;;;5090142;28;20182;-58
2021/09/20 05:52:05;;;;;;;5.57;5.07;;;;;;;;;;5091083;28;20184;-57
2021/09/20 05:54:31;;;;;;;6.13;5.53;;;;;;;;;;5087705;28;20685;-57
2021/09/20 05:56:57;;;;;;;6.37;5.47;;;;;;;;;;5090318;28;20203;-57
2021/09/20 05:59:23;;;;;;;5.83;5.33;;;;;;;;;;5090144;28;20290;-57
2021/09/20 06:01:49;;;;;;;6.10;5.50;;;;;;;;;;5090685;28;20176;-57
2021/09/20 06:04:15;;;;;;;5.33;4.93;;;;;;;;;;5096108;28;20175;-57
2021/09/20 06:06:41;;;;;;;5.83;5.33;;;;;;;;;;5089400;28;20199;-57
2021/09/20 06:09:07;;;;;;;5.87;5.27;;;;;;;;;;5090029;28;20180;-57
2021/09/20 06:11:33;;;;;;;5.23;4.73;;;;;;;;;;5088852;28;20227;-57
2021/09/20 06:13:59;;;;;;;5.53;5.03;;;;;;;;;;5090557;28;20176;-57
2021/09/20 06:16:25;;;;;;;5.80;5.23;;;;;;;;;;5090133;28;20233;-57
2021/09/20 06:18:51;;;;;;;7.17;6.50;;;;;;;;;;5089532;28;20286;-58
2021/09/20 06:21:17;;;;;;;5.80;5.30;;;;;;;;;;5086169;28;20192;-58
2021/09/20 06:23:44;;;;;;;6.00;5.50;;;;;;;;;;5100666;28;20252;-58
2021/09/20 06:26:10;;;;;;;6.20;5.70;;;;;;;;;;5092870;28;20229;-57
2021/09/20 06:28:36;;;;;;;7.87;5.67;;;;;;;;;;5090052;28;20190;-57
2021/09/20 06:31:02;;;;;;;5.70;5.17;;;;;;;;;;5089418;28;20579;-58
2021/09/20 06:33:32;;;;;;;5.80;5.30;;;;;;;;;;5090147;28;20219;-58
2021/09/20 06:35:59;;;;;;;5.77;5.27;;;;;;;;;;5088397;28;20765;-58
2021/09/20 06:38:26;;;;;;;5.83;5.33;;;;;;;;;;5088557;28;20187;-58
2021/09/20 06:40:52;;;;;;;6.37;5.77;;;;;;;;;;5068435;28;20561;-58
2021/09/20 06:43:18;;;;;;;6.27;5.67;;;;;;;;;;5070719;28;20203;-58
2021/09/20 06:45:44;;;;;;;6.63;6.03;;;;;;;;;;5088803;28;20182;-58
2021/09/20 06:48:10;;;;;;;5.80;5.23;;;;;;;;;;5089819;28;20180;-58
2021/09/20 06:50:37;;;;;;;6.17;5.60;;;;;;;;;;5088589;28;20184;-58
2021/09/20 06:53:06;;;;;;;5.50;5.00;;;;;;;;;;5068386;28;20229;-58
2021/09/20 06:55:32;;;;;;;5.60;5.10;;;;;;;;;;5086941;28;20211;-58
2021/09/20 06:57:59;;;;;;;6.27;5.67;;;;;;;;;;5091141;28;20238;-58
2021/09/20 07:00:26;;;;;;;6.27;5.63;;;;;;;;;;5094416;28;20720;-58
2021/09/20 07:02:52;;;;;;;5.97;5.37;;;;;;;;;;5091244;28;20219;-57
2021/09/20 07:05:19;;;;;;;7.13;5.93;;;;;;;;;;5098985;28;20191;-57
2021/09/20 07:07:45;;;;;;;7.73;6.37;;;;;;;;;;5088500;28;20182;-57
2021/09/20 07:10:15;;;;;;;8.50;6.20;;;;;;;;;;5070298;28;20180;-58
2021/09/20 07:12:41;;;;;;;6.53;5.87;;;;;;;;;;5088472;28;20230;-57
2021/09/20 07:15:09;;;;;;;7.57;6.80;;;;;;;;;;5071318;28;20184;-57
2021/09/20 07:17:35;;;;;;;7.53;6.07;;;;;;;;;;5066234;28;20185;-57
2021/09/20 07:20:01;;;;;;;6.63;5.70;;;;;;;;;;5094843;28;20608;-57
2021/09/20 07:22:28;;;;;;;6.53;5.93;;;;;;;;;;5069793;28;20574;-57
2021/09/20 07:24:54;;;;;;;6.90;6.20;;;;;;;;;;5077853;28;20172;-57
2021/09/20 07:27:21;;;;;;;9.00;6.47;;;;;;;;;;5070231;28;20175;-56
2021/09/20 07:29:47;;;;;;;8.00;6.07;;;;;;;;;;5062284;28;20222;-57
2021/09/20 07:32:14;;;;;;;7.10;6.33;;;;;;;;;;5073101;28;20198;-57
2021/09/20 07:34:40;;;;;;;7.00;6.03;;;;;;;;;;5086898;28;20204;-57
2021/09/20 07:37:06;;;;;;;8.20;6.30;;;;;;;;;;5088594;28;20171;-57
2021/09/20 07:39:33;;;;;;;9.00;6.30;;;;;;;;;;5069820;28;20188;-57
2021/09/20 07:42:00;;;;;;;6.37;5.77;;;;;;;;;;5088388;28;20180;-56
2021/09/20 07:44:26;;;;;;;7.47;6.67;;;;;;;;;;5070300;28;20254;-57
2021/09/20 07:46:53;;;;;;;6.47;5.87;;;;;;;;;;5053441;28;20237;-57
2021/09/20 07:49:19;;;;;;;6.80;6.20;;;;;;;;;;5069710;28;20333;-57
2021/09/20 07:51:45;;;;;;;6.47;5.87;;;;;;;;;;5089038;28;20187;-56
2021/09/20 07:54:11;;;;;;;6.63;5.73;;;;;;;;;;5091908;28;20572;-56
2021/09/20 07:56:37;;;;;;;6.43;5.83;;;;;;;;;;5088108;28;20179;-57
2021/09/20 07:59:03;;;;;;;8.63;6.40;;;;;;;;;;5091668;28;20179;-57
2021/09/20 08:01:30;;;;;;;7.13;6.43;;;;;;;;;;5093139;28;20657;-57
2021/09/20 08:03:57;;;;;;;7.63;5.80;;;;;;;;;;5074290;28;20203;-57
2021/09/20 08:06:24;;;;;;;6.53;5.93;;;;;;;;;;5103918;28;20179;-57
2021/09/20 08:08:51;;;;;;;6.43;5.70;;;;;;;;;;5073659;28;20182;-57
2021/09/20 08:11:17;;;;;;;6.17;5.57;;;;;;;;;;5073584;28;20217;-57
2021/09/20 08:13:43;;;;;;;5.70;5.20;;;;;;;;;;5053058;28;20182;-57
2021/09/20 08:16:10;;;;;;;6.50;5.37;;;;;;;;;;5054594;28;20279;-57
2021/09/20 08:18:36;;;;;;;9.60;5.50;;;;;;;;;;5037050;28;20211;-57
2021/09/20 08:21:03;;;;;;;5.77;5.30;;;;;;;;;;5071379;28;20189;-57
2021/09/20 08:23:30;;;;;;;6.07;5.57;;;;;;;;;;5052095;28;20430;-57
2021/09/20 08:25:56;;;;;;;7.07;6.37;;;;;;;;;;5049758;28;20194;-57
2021/09/20 08:28:23;;;;;;;7.87;5.80;;;;;;;;;;5074547;28;20267;-62
2021/09/20 08:30:49;;;;;;;6.10;5.57;;;;;;;;;;5054868;28;20292;-57
2021/09/20 08:33:15;;;;;;;8.57;5.73;;;;;;;;;;5071431;28;20184;-57
2021/09/20 08:35:42;;;;;;;7.73;6.00;;;;;;;;;;5052529;28;20392;-58
2021/09/20 08:38:08;;;;;;;6.37;5.77;;;;;;;;;;5047048;28;20169;-58
2021/09/20 08:40:36;;;;;;;6.30;5.67;;;;;;;;;;5057692;28;20275;-57
2021/09/20 08:43:02;;;;;;;6.83;6.20;;;;;;;;;;5070016;28;20608;-57
2021/09/20 08:45:29;;;;;;;6.47;5.87;;;;;;;;;;5035970;28;20523;-57
2021/09/20 08:47:57;;;;;;;6.87;6.17;;;;;;;;;;5051830;28;20181;-57
2021/09/20 08:50:25;;;;;;;6.30;5.70;;;;;;;;;;5051721;28;20271;-57
2021/09/20 08:52:52;;;;;;;6.57;5.77;;;;;;;;;;5069501;28;20169;-57
2021/09/20 08:55:18;;;;;;;6.63;6.03;;;;;;;;;;5070587;28;20176;-57
2021/09/20 08:57:44;;;;;;;5.97;5.47;;;;;;;;;;5053735;28;20536;-57
2021/09/20 09:00:12;;;;;;;6.90;6.20;;;;;;;;;;5071198;28;20177;-57
2021/09/20 09:02:38;;;;;;;6.80;6.10;;;;;;;;;;5051646;28;20253;-57
2021/09/20 09:05:13;;;;;;;5.90;5.40;;;;;;;;;;5071886;28;20180;-57
2021/09/20 09:07:54;;;;;;;6.97;5.27;;;;;;;;;;5071788;28;20630;-57
2021/09/20 09:10:22;;;;;;;6.30;5.70;;;;;;;;;;5056870;28;20200;-57
2021/09/20 09:12:49;;;;;;;6.43;5.83;;;;;;;;;;5053443;28;20220;-57
2021/09/20 09:15:16;;;;;;;7.33;5.83;;;;;;;;;;5037392;28;20191;-57
2021/09/20 09:17:47;;;;;;;6.00;5.37;;;;;;;;;;5071081;28;20177;-57
2021/09/20 09:20:15;;;;;;;6.57;5.50;;;;;;;;;;5071049;28;20204;-57
2021/09/20 09:22:45;;;;;;;6.17;5.60;;;;;;;;;;5070755;28;20299;-58
2021/09/20 09:25:13;;;;;;;6.23;5.73;;;;;;;;;;5071449;28;20184;-57
2021/09/20 09:27:40;;;;;;;5.90;5.40;;;;;;;;;;5059845;28;20195;-57
2021/09/20 09:30:15;;;;;;;5.83;5.20;;;;;;;;;;5066538;28;20200;-56
2021/09/20 09:32:42;;;;;;;5.87;5.37;;;;;;;;;;5070850;28;20196;-57
2021/09/20 09:35:09;;;;;;;6.03;5.43;;;;;;;;;;5071406;28;20257;-56
2021/09/20 09:37:37;;;;;;;6.57;5.97;;;;;;;;;;5071422;28;20574;-57
2021/09/20 09:40:15;;;;;;;5.53;5.03;;;;;;;;;;5076044;28;20182;-56
2021/09/20 09:42:42;;;;;;;6.30;5.33;;;;;;;;;;5044365;28;20169;-57
2021/09/20 09:45:14;;;;;;;6.67;6.03;;;;;;;;;;5071125;28;20195;-57
2021/09/20 09:47:41;;;;;;;5.93;5.33;;;;;;;;;;5063925;28;20168;-57
2021/09/20 09:50:21;;;;;;;5.30;4.80;;;;;;;;;;5053941;28;20251;-56
2021/09/20 09:52:48;;;;;;;5.73;5.23;;;;;;;;;;5052234;28;20700;-57
2021/09/20 09:55:15;;;;;;;6.03;5.43;;;;;;;;;;5071253;28;20184;-57
2021/09/20 09:57:42;;;;;;;5.90;5.27;;;;;;;;;;5052563;28;20176;-57
2021/09/20 10:00:10;;;;;;;5.73;5.23;;;;;;;;;;5052906;28;20184;-57
2021/09/20 10:02:37;;;;;;;7.40;5.50;;;;;;;;;;5064682;28;20184;-57
2021/09/20 10:05:06;;;;;;;7.23;6.07;;;;;;;;;;5057790;28;20185;-56
2021/09/20 10:07:33;;;;;;;6.63;6.03;;;;;;;;;;5070590;28;20204;-56
2021/09/20 10:10:01;;;;;;;6.13;5.53;;;;;;;;;;5058373;28;20203;-57
2021/09/20 10:12:28;;;;;;;6.27;5.20;;;;;;;;;;5078767;28;20207;-56
2021/09/20 10:14:56;;;;;;;5.60;5.10;;;;;;;;;;5090246;28;20179;-57
2021/09/20 10:17:24;;;;;;;5.93;4.90;;;;;;;;;;5090755;28;20175;-57
2021/09/20 10:19:51;;;;;;;6.53;5.93;;;;;;;;;;5089635;28;20181;-57
2021/09/20 10:22:17;;;;;;;6.23;5.63;;;;;;;;;;5089907;28;20196;-57
2021/09/20 10:24:44;;;;;;;5.67;5.17;;;;;;;;;;5071352;28;20310;-57
2021/09/20 10:27:12;;;;;;;6.37;5.77;;;;;;;;;;5090397;28;20168;-57
2021/09/20 10:29:40;;;;;;;5.73;5.23;;;;;;;;;;5076721;28;20199;-57
2021/09/20 10:32:06;;;;;;;5.87;5.37;;;;;;;;;;5090162;28;20183;-57
2021/09/20 10:34:33;;;;;;;6.03;5.43;;;;;;;;;;5074416;28;20214;-56
2021/09/20 10:37:04;;;;;;;5.77;5.17;;;;;;;;;;5089617;28;20179;-57
2021/09/20 10:39:49;;;;;;;5.63;5.03;;;;;;;;;;5088799;28;20184;-57
2021/09/20 10:42:34;;;;;;;5.47;4.97;;;;;;;;;;5051929;28;20194;-57
2021/09/20 10:45:00;;;;;;;5.53;5.03;;;;;;;;;;5076169;28;20263;-57
2021/09/20 10:47:41;;;;;;;5.50;5.00;;;;;;;;;;5090088;28;20165;-57
2021/09/20 10:50:07;;;;;;;5.73;5.23;;;;;;;;;;5087815;28;20204;-57
2021/09/20 10:52:33;;;;;;;4.93;4.53;;;;;;;;;;5089617;28;20176;-57
2021/09/20 10:55:08;;;;;;;5.70;5.20;;;;;;;;;;5070155;28;20245;-57
2021/09/20 10:57:36;;;;;;;5.73;5.23;;;;;;;;;;5070033;28;20182;-57
2021/09/20 11:00:21;;;;;;;4.70;4.37;;;;;;;;;;5058726;28;20175;-57
2021/09/20 11:02:48;;;;;;;7.77;4.63;;;;;;;;;;5089777;28;20188;-57
2021/09/20 11:05:15;;;;;;;4.97;4.50;;;;;;;;;;5070778;28;20191;-57
2021/09/20 11:07:45;;;;;;;6.30;5.73;;;;;;;;;;5071284;28;20182;-57
2021/09/20 11:10:12;;;;;;;4.93;4.50;;;;;;;;;;5088111;28;20261;-57
2021/09/20 11:12:57;;;;;;;5.40;4.90;;;;;;;;;;5054608;28;20273;-57
2021/09/20 11:15:24;;;;;;;4.97;4.57;;;;;;;;;;5068366;28;20232;-57
2021/09/20 11:17:51;;;;;;;4.70;4.30;;;;;;;;;;5060208;28;20193;-58
2021/09/20 11:20:30;;;;;;;5.30;4.80;;;;;;;;;;5055127;28;20263;-57
2021/09/20 11:23:16;;;;;;;4.87;4.47;;;;;;;;;;5068224;28;20404;-57
2021/09/20 11:26:01;;;;;;;4.60;4.20;;;;;;;;;;5080499;28;20173;-58
2021/09/20 11:28:34;;;;;;;4.93;4.43;;;;;;;;;;5076064;28;20172;-58
2021/09/20 11:31:00;;;;;;;4.90;4.40;;;;;;;;;;5073195;28;20214;-58
2021/09/20 11:33:33;;;;;;;6.17;4.57;;;;;;;;;;5069762;28;20553;-58
2021/09/20 11:35:59;;;;;;;5.47;4.40;;;;;;;;;;5050634;28;20192;-58
2021/09/20 11:38:25;;;;;;;4.90;4.50;;;;;;;;;;5066586;28;20180;-58
2021/09/20 11:40:52;;;;;;;5.10;4.70;;;;;;;;;;5050069;28;20592;-58
2021/09/20 11:43:19;;;;;;;5.60;5.10;;;;;;;;;;5051016;28;20345;-58
2021/09/20 11:45:49;;;;;;;4.40;4.00;;;;;;;;;;5068886;28;20523;-58
2021/09/20 11:48:19;;;;;;;5.70;4.60;;;;;;;;;;5053338;28;20190;-58
2021/09/20 11:50:45;;;;;;;4.90;4.50;;;;;;;;;;5075214;28;20325;-59
2021/09/20 11:53:13;;;;;;;5.27;4.77;;;;;;;;;;5066719;28;20183;-59
2021/09/20 11:55:45;;;;;;;5.43;4.93;;;;;;;;;;5074861;28;20589;-59
2021/09/20 11:58:14;;;;;;;5.90;5.30;;;;;;;;;;5071105;28;20167;-59
2021/09/20 12:00:48;;;;;;;5.40;4.90;;;;;;;;;;5047142;28;20189;-59
2021/09/20 12:03:25;;;;;;;6.47;5.60;;;;;;;;;;5062167;28;20223;-59
2021/09/20 12:05:51;;;;;;;5.70;5.30;;;;;;;;;;5050149;28;20514;-59
2021/09/20 12:08:21;;;;;;;5.87;5.10;;;;;;;;;;5049510;28;20209;-59
2021/09/20 12:10:49;;;;;;;5.70;5.20;;;;;;;;;;5051739;28;20200;-59
2021/09/20 12:13:17;;;;;;;5.83;5.33;;;;;;;;;;5070582;28;20182;-58
2021/09/20 12:15:45;;;;;;;4.80;4.30;;;;;;;;;;5088703;28;20176;-58
2021/09/20 12:18:13;;;;;;;5.33;4.87;;;;;;;;;;5087081;28;20661;-58
2021/09/20 12:20:42;;;;;;;5.03;4.67;;;;;;;;;;5088395;28;20176;-58
2021/09/20 12:23:29;;;;;;;7.13;6.63;;;;;;;;;;5087622;28;20172;-58
2021/09/20 12:25:56;;;;;;;5.20;4.80;;;;;;;;;;5073902;28;20180;-59
2021/09/20 12:28:22;;;;;;;5.40;4.90;;;;;;;;;;5088334;28;20175;-58
2021/09/20 12:30:56;;;;;;;4.90;4.50;;;;;;;;;;5087911;28;20658;-58
2021/09/20 12:33:23;;;;;;;5.23;4.40;;;;;;;;;;5076726;28;20203;-59
2021/09/20 12:35:52;;;;;;;4.87;4.47;;;;;;;;;;5088177;28;20171;-59
2021/09/20 12:38:20;;;;;;;5.63;5.10;;;;;;;;;;5086519;28;20183;-59
2021/09/20 12:40:47;;;;;;;4.93;4.53;;;;;;;;;;5084738;28;20515;-58
2021/09/20 12:43:18;;;;;;;5.20;4.70;;;;;;;;;;5083308;28;20211;-58
2021/09/20 12:45:45;;;;;;;5.40;4.90;;;;;;;;;;5078896;28;20719;-58
2021/09/20 12:48:12;;;;;;;5.17;4.67;;;;;;;;;;5072763;28;20176;-57
2021/09/20 12:50:39;;;;;;;5.17;4.77;;;;;;;;;;5087520;28;20212;-58
2021/09/20 12:53:09;;;;;;;5.57;5.07;;;;;;;;;;5099683;28;20375;-57
2021/09/20 12:55:40;;;;;;;4.67;4.30;;;;;;;;;;5095554;28;20176;-57
2021/09/20 12:58:07;;;;;;;7.23;5.60;;;;;;;;;;5084769;28;20212;-57
2021/09/20 13:00:37;;;;;;;6.37;5.70;;;;;;;;;;5093844;28;20179;-57
2021/09/20 13:03:12;;;;;;;5.83;5.23;;;;;;;;;;5077903;28;20588;-58
2021/09/20 13:05:45;;;;;;;5.93;5.37;;;;;;;;;;5084960;28;20551;-57
2021/09/20 13:08:11;;;;;;;5.57;5.10;;;;;;;;;;5090113;28;20289;-57
2021/09/20 13:10:42;;;;;;;7.37;5.90;;;;;;;;;;5090349;28;20708;-58
2021/09/20 13:13:09;;;;;;;6.07;5.47;;;;;;;;;;5089199;28;20188;-57
2021/09/20 13:15:35;;;;;;;6.30;5.43;;;;;;;;;;5072183;28;20555;-57
2021/09/20 13:18:17;;;;;;;5.20;4.80;;;;;;;;;;5091381;28;20183;-57
2021/09/20 13:20:43;;;;;;;7.53;5.67;;;;;;;;;;5089480;28;20183;-57
2021/09/20 13:23:10;;;;;;;7.77;4.73;;;;;;;;;;5089163;28;20678;-57
2021/09/20 13:25:41;;;;;;;6.10;5.50;;;;;;;;;;5074314;28;20184;-57
2021/09/20 13:28:10;;;;;;;6.03;5.43;;;;;;;;;;5071196;28;20236;-57
2021/09/20 13:30:39;;;;;;;5.93;5.43;;;;;;;;;;5092622;28;20618;-57
2021/09/20 13:33:05;;;;;;;6.83;6.00;;;;;;;;;;5080462;28;20226;-57
2021/09/20 13:35:34;;;;;;;5.73;5.23;;;;;;;;;;5090894;28;20184;-57
2021/09/20 13:38:00;;;;;;;5.67;5.13;;;;;;;;;;5071251;28;20369;-57
2021/09/20 13:40:27;;;;;;;5.57;5.07;;;;;;;;;;5087504;28;20195;-57
2021/09/20 13:42:54;;;;;;;8.57;5.73;;;;;;;;;;5090533;28;20671;-57
2021/09/20 13:45:20;;;;;;;5.60;5.10;;;;;;;;;;5071819;28;20712;-57
2021/09/20 13:47:46;;;;;;;6.33;5.17;;;;;;;;;;5088995;28;20537;-57
2021/09/20 13:50:13;;;;;;;6.00;5.43;;;;;;;;;;5089979;28;20203;-57
2021/09/20 13:52:39;;;;;;;4.93;4.50;;;;;;;;;;5089761;28;20325;-58
2021/09/20 13:55:11;;;;;;;5.53;5.07;;;;;;;;;;5088610;28;20187;-57
2021/09/20 13:57:37;;;;;;;6.27;5.70;;;;;;;;;;5089659;28;20227;-58
2021/09/20 14:00:08;;;;;;;6.53;5.37;;;;;;;;;;5090166;28;20186;-58
2021/09/20 14:02:38;;;;;;;5.93;5.33;;;;;;;;;;5089020;28;20184;-57
2021/09/20 14:05:04;;;;;;;5.80;5.20;;;;;;;;;;5072003;28;20183;-57
2021/09/20 14:07:34;;;;;;;5.93;4.97;;;;;;;;;;5071021;28;20552;-57
2021/09/20 14:10:03;;;;;;;6.60;5.87;;;;;;;;;;5062809;28;20211;-57
2021/09/20 14:12:29;;;;;;;5.20;4.80;;;;;;;;;;5068257;28;20216;-57
2021/09/20 14:14:56;;;;;;;5.40;5.00;;;;;;;;;;5069920;28;20176;-58
2021/09/20 14:17:22;;;;;;;5.50;5.00;;;;;;;;;;5070499;28;20202;-57
2021/09/20 14:19:52;;;;;;;5.10;4.60;;;;;;;;;;5088195;28;20179;-57
2021/09/20 14:22:18;;;;;;;6.23;5.73;;;;;;;;;;5088306;28;20190;-58
2021/09/20 14:24:45;;;;;;;8.40;4.87;;;;;;;;;;5069199;28;20184;-57
2021/09/20 14:27:12;;;;;;;5.07;4.60;;;;;;;;;;5088488;28;20665;-58
2021/09/20 14:29:38;;;;;;;5.07;4.67;;;;;;;;;;5069675;28;20191;-58
2021/09/20 14:32:05;;;;;;;5.43;4.57;;;;;;;;;;5088456;28;20192;-58
2021/09/20 14:34:31;;;;;;;4.47;4.10;;;;;;;;;;5070412;28;20191;-58
2021/09/20 14:36:57;;;;;;;5.20;4.70;;;;;;;;;;5087510;28;20182;-58
2021/09/20 14:39:23;;;;;;;7.47;4.80;;;;;;;;;;5088203;28;20199;-58
2021/09/20 14:41:50;;;;;;;4.43;4.07;;;;;;;;;;5069607;28;20653;-58
2021/09/20 14:44:20;;;;;;;6.60;4.70;;;;;;;;;;5070439;28;20221;-58